createdAt,value
2023-02-22T00:01:35.298Z,9.26
2023-02-22T00:03:39.040Z,9.26
2023-02-22T00:05:40.822Z,9.26
2023-02-22T00:07:44.662Z,9.26
2023-02-22T00:09:46.131Z,9.27
2023-02-22T00:11:48.786Z,9.26
2023-02-22T00:13:50.692Z,9.27
2023-02-22T00:15:52.147Z,9.26
2023-02-22T00:17:54.941Z,9.26
2023-02-22T00:19:56.398Z,9.25
2023-02-22T00:21:58.098Z,9.26
2023-02-22T00:23:59.604Z,9.26
2023-02-22T00:26:01.285Z,9.25
2023-02-22T00:28:04.958Z,9.25
2023-02-22T00:30:07.263Z,9.24
2023-02-22T00:32:09.085Z,9.24
2023-02-22T00:34:10.591Z,9.23
2023-02-22T00:36:13.701Z,9.21
2023-02-22T00:38:17.857Z,9.19
2023-02-22T00:40:23.260Z,9.18
2023-02-22T00:42:24.738Z,9.18
2023-02-22T00:44:27.441Z,9.17
2023-02-22T00:46:28.917Z,9.17
2023-02-22T00:48:30.400Z,9.17
2023-02-22T00:50:32.937Z,9.17
2023-02-22T00:52:36.046Z,9.17
2023-02-22T00:54:37.565Z,9.15
2023-02-22T00:56:39.306Z,9.10
2023-02-22T00:58:40.815Z,9.08
2023-02-22T01:00:43.628Z,9.08
2023-02-22T01:02:45.223Z,9.08
2023-02-22T01:04:46.690Z,9.08
2023-02-22T01:06:48.286Z,9.07
2023-02-22T01:08:49.757Z,9.07
2023-02-22T01:10:52.609Z,9.05
2023-02-22T01:12:55.385Z,9.05
2023-02-22T01:14:58.611Z,9.04
2023-02-22T01:17:00.128Z,9.01
2023-02-22T01:19:01.609Z,9.00
2023-02-22T01:21:06.524Z,8.97
2023-02-22T01:23:08.291Z,8.97
2023-02-22T01:25:11.455Z,8.96
2023-02-22T01:27:13.762Z,8.95
2023-02-22T01:29:16.617Z,8.95
2023-02-22T01:31:18.428Z,8.94
2023-02-22T01:33:20.182Z,8.96
2023-02-22T01:35:25.562Z,8.96
2023-02-22T01:37:27.379Z,8.96
2023-02-22T01:39:28.847Z,8.95
2023-02-22T01:41:30.302Z,8.95
2023-02-22T01:43:33.197Z,8.91
2023-02-22T01:45:40.744Z,8.89
2023-02-22T01:47:42.839Z,8.88
2023-02-22T01:49:50.864Z,8.90
2023-02-22T01:51:56.584Z,8.90
2023-02-22T01:54:10.069Z,8.87
2023-02-22T01:56:12.947Z,8.84
2023-02-22T01:58:18.524Z,8.84
2023-02-22T02:00:22.105Z,8.84
2023-02-22T02:02:25.168Z,8.83
2023-02-22T02:04:27.994Z,8.84
2023-02-22T02:06:33.510Z,8.85
2023-02-22T02:08:49.663Z,8.85
2023-02-22T02:10:53.413Z,8.85
2023-02-22T02:12:57.411Z,8.85
2023-02-22T02:15:23.530Z,8.83
2023-02-22T02:17:25.020Z,8.80
2023-02-22T02:19:38.511Z,8.79
2023-02-22T02:21:54.793Z,8.77
2023-02-22T02:24:21.248Z,8.73
2023-02-22T02:26:46.979Z,8.74
2023-02-22T02:29:25.896Z,8.74
2023-02-22T02:31:34.891Z,8.74
2023-02-22T02:33:57.029Z,8.75
2023-02-22T02:36:36.243Z,8.76
2023-02-22T02:38:49.289Z,8.76
2023-02-22T02:41:12.154Z,8.75
2023-02-22T02:43:22.846Z,8.76
2023-02-22T02:45:34.270Z,8.75
2023-02-22T02:47:42.342Z,8.73
2023-02-22T02:49:58.138Z,8.74
2023-02-22T02:52:02.745Z,8.74
2023-02-22T02:54:05.786Z,8.73
2023-02-22T02:56:07.654Z,8.73
2023-02-22T02:58:09.511Z,8.73
2023-02-22T03:00:24.163Z,8.74
2023-02-22T03:02:28.490Z,8.72
2023-02-22T03:04:45.248Z,8.71
2023-02-22T03:07:05.860Z,8.70
2023-02-22T03:09:42.991Z,8.69
2023-02-22T03:12:01.365Z,8.67
2023-02-22T03:14:16.416Z,8.66
2023-02-22T03:16:21.082Z,8.66
2023-02-22T03:18:31.626Z,8.66
2023-02-22T03:20:45.385Z,8.66
2023-02-22T03:22:59.004Z,8.66
2023-02-22T03:25:43.435Z,8.64
2023-02-22T03:27:53.306Z,8.63
2023-02-22T03:30:00.413Z,8.63
2023-02-22T03:32:07.344Z,8.61
2023-02-22T03:34:16.005Z,8.59
2023-02-22T03:36:25.122Z,8.60
2023-02-22T03:38:29.753Z,8.58
2023-02-22T03:40:35.030Z,8.57
2023-02-22T03:42:38.206Z,8.55
2023-02-22T03:44:43.569Z,8.50
2023-02-22T03:46:47.738Z,8.47
2023-02-22T03:49:00.185Z,8.45
2023-02-22T03:51:04.607Z,8.42
2023-02-22T03:53:07.459Z,8.38
2023-02-22T03:55:11.270Z,8.35
2023-02-22T03:57:20.874Z,8.32
2023-02-22T03:59:27.296Z,8.28
2023-02-22T04:01:28.798Z,8.23
2023-02-22T04:03:30.301Z,8.19
2023-02-22T04:05:31.785Z,8.13
2023-02-22T04:07:33.323Z,8.10
2023-02-22T04:09:34.769Z,8.04
2023-02-22T04:11:36.603Z,8.01
2023-02-22T04:13:38.075Z,7.96
2023-02-22T04:15:39.562Z,7.93
2023-02-22T04:17:41.241Z,7.87
2023-02-22T04:19:45.092Z,7.83
2023-02-22T04:21:46.689Z,7.79
2023-02-22T04:23:48.184Z,7.76
2023-02-22T04:25:49.660Z,7.71
2023-02-22T04:27:51.712Z,7.67
2023-02-22T04:29:53.247Z,7.63
2023-02-22T04:31:54.794Z,7.59
2023-02-22T04:33:56.291Z,7.54
2023-02-22T04:35:57.855Z,7.50
2023-02-22T04:37:59.330Z,7.46
2023-02-22T04:40:01.672Z,7.42
2023-02-22T04:42:03.252Z,7.39
2023-02-22T04:44:04.879Z,7.36
2023-02-22T04:46:06.440Z,7.34
2023-02-22T04:48:07.976Z,7.30
2023-02-22T04:50:11.417Z,7.28
2023-02-22T04:52:12.873Z,7.27
2023-02-22T04:54:14.450Z,7.25
2023-02-22T04:56:19.898Z,7.23
2023-02-22T04:58:21.617Z,7.19
2023-02-22T05:00:24.011Z,7.19
2023-02-22T05:02:25.539Z,7.18
2023-02-22T05:04:27.132Z,7.17
2023-02-22T05:06:28.640Z,7.18
2023-02-22T05:08:30.156Z,7.19
2023-02-22T05:10:31.637Z,7.19
2023-02-22T05:12:33.111Z,7.19
2023-02-22T05:14:34.657Z,7.22
2023-02-22T05:16:36.575Z,7.22
2023-02-22T05:18:38.071Z,7.24
2023-02-22T05:20:39.778Z,7.22
2023-02-22T05:22:41.227Z,7.24
2023-02-22T05:24:43.920Z,7.21
2023-02-22T05:26:46.540Z,7.19
2023-02-22T05:28:48.015Z,7.18
2023-02-22T05:30:49.615Z,7.18
2023-02-22T05:32:51.743Z,7.14
2023-02-22T05:34:53.240Z,7.12
2023-02-22T05:36:54.738Z,7.10
2023-02-22T05:38:56.510Z,7.11
2023-02-22T05:40:57.979Z,7.09
2023-02-22T05:43:02.138Z,7.08
2023-02-22T05:45:03.861Z,7.08
2023-02-22T05:47:05.374Z,7.06
2023-02-22T05:49:07.099Z,7.04
2023-02-22T05:51:09.720Z,7.01
2023-02-22T05:53:11.315Z,6.99
2023-02-22T05:55:14.763Z,6.99
2023-02-22T05:57:16.687Z,6.99
2023-02-22T05:59:18.225Z,6.96
2023-02-22T06:01:20.409Z,6.95
2023-02-22T06:03:22.476Z,6.92
2023-02-22T06:05:24.244Z,6.91
2023-02-22T06:07:25.882Z,6.89
2023-02-22T06:09:27.390Z,6.88
2023-02-22T06:11:28.856Z,6.87
2023-02-22T06:13:30.355Z,6.87
2023-02-22T06:15:31.844Z,6.86
2023-02-22T06:17:33.349Z,6.85
2023-02-22T06:19:34.928Z,6.84
2023-02-22T06:21:36.369Z,6.84
2023-02-22T06:23:37.943Z,6.85
2023-02-22T06:25:39.421Z,6.84
2023-02-22T06:27:40.943Z,6.84
2023-02-22T06:29:46.940Z,6.85
2023-02-22T06:31:48.449Z,6.86
2023-02-22T06:33:49.987Z,6.85
2023-02-22T06:35:51.467Z,6.87
2023-02-22T06:37:53.015Z,6.86
2023-02-22T06:39:54.533Z,6.87
2023-02-22T06:41:57.782Z,6.88
2023-02-22T06:43:59.286Z,6.89
2023-02-22T06:46:00.798Z,6.90
2023-02-22T06:48:02.326Z,6.90
2023-02-22T06:50:03.908Z,6.92
2023-02-22T06:52:06.953Z,6.94
2023-02-22T06:54:08.720Z,6.95
2023-02-22T06:56:10.172Z,6.96
2023-02-22T06:58:11.618Z,6.98
2023-02-22T07:00:16.220Z,6.99
2023-02-22T07:02:17.694Z,7.02
2023-02-22T07:04:19.175Z,7.04
2023-02-22T07:06:20.847Z,7.06
2023-02-22T07:08:22.303Z,7.10
2023-02-22T07:10:27.803Z,7.13
2023-02-22T07:12:29.263Z,7.14
2023-02-22T07:14:30.765Z,7.17
2023-02-22T07:16:32.292Z,7.19
2023-02-22T07:18:33.796Z,7.22
2023-02-22T07:20:35.330Z,7.26
2023-02-22T07:22:37.676Z,7.29
2023-02-22T07:24:40.740Z,7.32
2023-02-22T07:26:42.710Z,7.34
2023-02-22T07:28:44.168Z,7.35
2023-02-22T07:30:45.690Z,7.35
2023-02-22T07:32:47.626Z,7.33
2023-02-22T07:34:49.145Z,7.34
2023-02-22T07:36:50.646Z,7.34
2023-02-22T07:38:52.091Z,7.35
2023-02-22T07:40:53.680Z,7.36
2023-02-22T07:42:57.934Z,7.36
2023-02-22T07:44:59.447Z,7.38
2023-02-22T07:47:02.526Z,7.39
2023-02-22T07:49:04.041Z,7.41
2023-02-22T07:51:06.099Z,7.40
2023-02-22T07:53:21.306Z,7.42
2023-02-22T07:55:25.994Z,7.43
2023-02-22T07:57:27.580Z,7.45
2023-02-22T07:59:29.055Z,7.47
2023-02-22T08:01:31.887Z,7.44
2023-02-22T08:03:36.517Z,7.44
2023-02-22T08:05:40.234Z,7.45
2023-02-22T08:07:43.243Z,7.47
2023-02-22T08:09:44.715Z,7.49
2023-02-22T08:11:46.182Z,7.52
2023-02-22T08:13:47.660Z,7.52
2023-02-22T08:15:52.051Z,7.54
2023-02-22T08:17:53.680Z,7.55
2023-02-22T08:19:55.321Z,7.54
2023-02-22T08:21:56.763Z,7.53
2023-02-22T08:23:58.281Z,7.53
2023-02-22T08:26:10.916Z,7.55
2023-02-22T08:28:15.173Z,7.55
2023-02-22T08:30:23.168Z,7.55
2023-02-22T08:32:24.923Z,7.55
2023-02-22T08:34:27.264Z,7.56
2023-02-22T08:36:29.541Z,7.58
2023-02-22T08:38:32.662Z,7.58
2023-02-22T08:40:37.031Z,7.59
2023-02-22T08:42:38.909Z,7.61
2023-02-22T08:44:41.002Z,7.64
2023-02-22T08:46:42.503Z,7.68
2023-02-22T08:49:03.066Z,7.66
2023-02-22T08:51:04.650Z,7.68
2023-02-22T08:53:06.148Z,7.72
2023-02-22T08:55:07.990Z,7.71
2023-02-22T08:57:09.466Z,7.73
2023-02-22T08:59:11.046Z,7.77
2023-02-22T09:01:14.043Z,7.81
2023-02-22T09:03:17.078Z,7.82
2023-02-22T09:05:19.790Z,7.84
2023-02-22T09:07:21.316Z,7.86
2023-02-22T09:09:22.790Z,7.93
2023-02-22T09:11:24.288Z,7.98
2023-02-22T09:13:25.833Z,8.03
2023-02-22T09:15:27.989Z,8.09
2023-02-22T09:17:29.496Z,8.13
2023-02-22T09:19:31.066Z,8.16
2023-02-22T09:21:32.555Z,8.19
2023-02-22T09:23:34.740Z,8.19
2023-02-22T09:25:36.251Z,8.26
2023-02-22T09:27:38.796Z,8.34
2023-02-22T09:29:40.458Z,8.40
2023-02-22T09:31:41.996Z,8.43
2023-02-22T09:33:44.310Z,8.48
2023-02-22T09:35:49.808Z,8.57
2023-02-22T09:37:51.350Z,8.64
2023-02-22T09:39:52.905Z,8.69
2023-02-22T09:42:13.515Z,8.77
2023-02-22T09:44:39.125Z,8.84
2023-02-22T09:46:45.639Z,8.86
2023-02-22T09:49:07.843Z,8.90
2023-02-22T09:51:17.088Z,8.98
2023-02-22T09:53:29.551Z,9.02
2023-02-22T09:55:51.163Z,9.08
2023-02-22T09:57:55.490Z,9.13
2023-02-22T10:00:13.615Z,9.20
2023-02-22T10:02:31.499Z,9.26
2023-02-22T10:05:08.351Z,9.32
2023-02-22T10:07:25.994Z,9.39
2023-02-22T10:09:30.359Z,9.44
2023-02-22T10:11:37.628Z,9.48
2023-02-22T10:13:54.292Z,9.53
2023-02-22T10:16:20.363Z,9.57
2023-02-22T10:18:40.553Z,9.64
2023-02-22T10:21:02.774Z,9.71
2023-02-22T10:23:16.420Z,9.75
2023-02-22T10:25:20.082Z,9.79
2023-02-22T10:27:29.187Z,9.87
2023-02-22T10:29:41.632Z,9.93
2023-02-22T10:31:49.038Z,9.94
2023-02-22T10:34:03.253Z,10.00
2023-02-22T10:36:05.065Z,10.05
2023-02-22T10:38:20.145Z,10.13
2023-02-22T10:40:32.172Z,10.12
2023-02-22T10:42:33.689Z,10.09
2023-02-22T10:44:37.527Z,10.17
2023-02-22T10:46:42.007Z,10.16
2023-02-22T10:48:47.549Z,10.18
2023-02-22T10:50:50.502Z,10.28
2023-02-22T10:52:51.981Z,10.37
2023-02-22T10:55:13.728Z,10.44
2023-02-22T10:57:23.037Z,10.59
2023-02-22T10:59:39.358Z,10.77
2023-02-22T11:01:41.061Z,10.95
2023-02-22T11:03:42.620Z,11.06
2023-02-22T11:05:44.700Z,11.14
2023-02-22T11:07:46.207Z,11.29
2023-02-22T11:09:52.583Z,11.47
2023-02-22T11:12:16.534Z,11.75
2023-02-22T11:14:29.466Z,11.98
2023-02-22T11:16:36.348Z,12.11
2023-02-22T11:18:38.095Z,12.25
2023-02-22T11:20:39.822Z,12.50
2023-02-22T11:22:42.576Z,12.72
2023-02-22T11:24:51.094Z,12.93
2023-02-22T11:26:59.602Z,13.17
2023-02-22T11:29:11.099Z,13.44
2023-02-22T11:31:24.561Z,13.84
2023-02-22T11:33:29.257Z,14.10
2023-02-22T11:35:39.272Z,14.18
2023-02-22T11:37:40.850Z,14.00
2023-02-22T11:39:43.805Z,13.88
2023-02-22T11:41:45.350Z,13.76
2023-02-22T11:43:49.245Z,13.62
2023-02-22T11:46:02.014Z,13.53
2023-02-22T11:48:07.376Z,13.55
2023-02-22T11:50:22.893Z,13.80
2023-02-22T11:52:28.205Z,14.11
2023-02-22T11:55:01.885Z,14.33
2023-02-22T11:57:26.651Z,14.48
2023-02-22T11:59:41.604Z,14.62
2023-02-22T12:01:54.471Z,14.62
2023-02-22T12:04:28.302Z,14.49
2023-02-22T12:06:58.314Z,14.32
2023-02-22T12:09:24.464Z,14.24
2023-02-22T12:11:50.833Z,14.23
2023-02-22T12:14:01.612Z,14.16
2023-02-22T12:16:12.989Z,14.08
2023-02-22T12:18:33.137Z,14.08
2023-02-22T12:20:51.863Z,14.02
2023-02-22T12:23:12.790Z,13.96
2023-02-22T12:25:24.952Z,13.95
2023-02-22T12:27:44.128Z,13.84
2023-02-22T12:29:51.303Z,13.80
2023-02-22T12:32:14.351Z,13.83
2023-02-22T12:34:27.232Z,13.84
2023-02-22T12:36:40.234Z,13.88
2023-02-22T12:38:47.407Z,13.94
2023-02-22T12:41:08.757Z,13.81
2023-02-22T12:43:26.272Z,13.65
2023-02-22T12:45:34.138Z,13.59
2023-02-22T12:47:45.819Z,13.57
2023-02-22T12:50:03.321Z,13.62
2023-02-22T12:52:39.057Z,13.70
2023-02-22T12:54:50.422Z,13.74
2023-02-22T12:57:13.648Z,13.72
2023-02-22T12:59:19.247Z,13.72
2023-02-22T13:01:25.874Z,13.60
2023-02-22T13:03:40.617Z,13.63
2023-02-22T13:05:43.263Z,13.76
2023-02-22T13:08:02.499Z,13.90
2023-02-22T13:10:32.019Z,13.95
2023-02-22T13:12:46.251Z,14.01
2023-02-22T13:14:54.660Z,14.02
2023-02-22T13:17:14.893Z,13.97
2023-02-22T13:19:30.740Z,13.90
2023-02-22T13:21:44.862Z,13.86
2023-02-22T13:23:49.090Z,13.89
2023-02-22T13:26:01.116Z,13.97
2023-02-22T13:28:13.461Z,14.02
2023-02-22T13:30:34.963Z,14.00
2023-02-22T13:32:54.639Z,14.05
2023-02-22T13:35:20.977Z,14.03
2023-02-22T13:37:37.840Z,13.98
2023-02-22T13:39:54.485Z,13.95
2023-02-22T13:42:09.982Z,13.92
2023-02-22T13:44:36.773Z,13.87
2023-02-22T13:47:11.485Z,13.83
2023-02-22T13:49:31.565Z,13.84
2023-02-22T13:51:38.027Z,13.84
2023-02-22T13:53:47.519Z,13.88
2023-02-22T13:55:53.786Z,13.80
2023-02-22T13:58:07.680Z,13.78
2023-02-22T14:00:40.954Z,13.82
2023-02-22T14:03:06.782Z,13.82
2023-02-22T14:05:46.688Z,13.82
2023-02-22T14:07:48.885Z,13.76
2023-02-22T14:09:59.153Z,13.79
2023-02-22T14:12:00.641Z,13.84
2023-02-22T14:14:02.061Z,13.90
2023-02-22T14:16:06.287Z,13.94
2023-02-22T14:18:16.928Z,13.94
2023-02-22T14:20:29.975Z,13.90
2023-02-22T14:22:31.744Z,13.93
2023-02-22T14:24:44.510Z,13.97
2023-02-22T14:27:04.704Z,14.03
2023-02-22T14:29:09.147Z,14.06
2023-02-22T14:31:25.783Z,14.09
2023-02-22T14:33:59.377Z,14.10
2023-02-22T14:36:01.014Z,14.10
2023-02-22T14:38:04.054Z,14.09
2023-02-22T14:40:26.842Z,14.10
2023-02-22T14:42:35.880Z,14.11
2023-02-22T14:44:43.653Z,14.12
2023-02-22T14:46:50.022Z,14.10
2023-02-22T14:48:59.765Z,14.08
2023-02-22T14:51:19.094Z,14.06
2023-02-22T14:53:44.260Z,14.03
2023-02-22T14:56:03.889Z,13.96
2023-02-22T14:58:10.810Z,13.91
2023-02-22T15:00:22.784Z,13.87
2023-02-22T15:02:26.038Z,13.85
2023-02-22T15:04:31.015Z,13.80
2023-02-22T15:06:35.229Z,13.75
2023-02-22T15:08:41.614Z,13.68
2023-02-22T15:10:48.300Z,13.65
2023-02-22T15:13:08.633Z,13.59
2023-02-22T15:15:22.738Z,13.52
2023-02-22T15:17:24.975Z,13.49
2023-02-22T15:19:29.027Z,13.47
2023-02-22T15:21:32.125Z,13.45
2023-02-22T15:23:49.010Z,13.42
2023-02-22T15:25:50.908Z,13.35
2023-02-22T15:27:52.510Z,13.33
2023-02-22T15:30:04.522Z,13.29
2023-02-22T15:32:36.687Z,13.24
2023-02-22T15:34:38.228Z,13.19
2023-02-22T15:36:39.807Z,13.14
2023-02-22T15:38:43.179Z,13.09
2023-02-22T15:40:45.594Z,13.05
2023-02-22T15:42:58.364Z,13.00
2023-02-22T15:44:59.914Z,12.95
2023-02-22T15:47:01.434Z,12.89
2023-02-22T15:49:20.553Z,12.87
2023-02-22T15:51:22.068Z,12.82
2023-02-22T15:53:28.819Z,12.79
2023-02-22T15:55:36.975Z,12.74
2023-02-22T15:57:38.513Z,12.72
2023-02-22T15:59:43.740Z,12.69
2023-02-22T16:01:48.056Z,12.66
2023-02-22T16:03:55.516Z,12.60
2023-02-22T16:05:58.500Z,12.56
2023-02-22T16:08:00.024Z,12.52
2023-02-22T16:10:08.982Z,12.46
2023-02-22T16:12:22.714Z,12.40
2023-02-22T16:14:30.309Z,12.36
2023-02-22T16:16:34.901Z,12.33
2023-02-22T16:18:41.305Z,12.32
2023-02-22T16:20:42.833Z,12.26
2023-02-22T16:22:51.569Z,12.23
2023-02-22T16:24:54.574Z,12.23
2023-02-22T16:27:10.502Z,12.15
2023-02-22T16:29:26.377Z,12.10
2023-02-22T16:31:34.354Z,12.05
2023-02-22T16:33:35.878Z,12.00
2023-02-22T16:35:37.453Z,11.95
2023-02-22T16:37:38.913Z,11.91
2023-02-22T16:39:41.766Z,11.86
2023-02-22T16:41:43.297Z,11.83
2023-02-22T16:43:47.005Z,11.80
2023-02-22T16:45:48.530Z,11.75
2023-02-22T16:47:53.778Z,11.71
2023-02-22T16:49:57.042Z,11.65
2023-02-22T16:52:01.503Z,11.59
2023-02-22T16:54:03.170Z,11.55
2023-02-22T16:56:08.598Z,11.51
2023-02-22T16:58:12.499Z,11.46
2023-02-22T17:00:21.828Z,11.42
2023-02-22T17:02:23.314Z,11.36
2023-02-22T17:04:26.475Z,11.31
2023-02-22T17:06:29.199Z,11.25
2023-02-22T17:08:31.303Z,11.19
2023-02-22T17:10:34.069Z,11.16
2023-02-22T17:12:35.648Z,11.09
2023-02-22T17:14:37.233Z,11.05
2023-02-22T17:16:38.722Z,11.02
2023-02-22T17:18:40.308Z,10.97
2023-02-22T17:20:45.655Z,10.94
2023-02-22T17:22:47.911Z,10.91
2023-02-22T17:24:49.603Z,10.88
2023-02-22T17:26:53.124Z,10.85
2023-02-22T17:28:54.630Z,10.81
2023-02-22T17:31:01.955Z,10.79
2023-02-22T17:33:06.126Z,10.74
2023-02-22T17:35:07.717Z,10.70
2023-02-22T17:37:09.182Z,10.67
2023-02-22T17:39:10.994Z,10.63
2023-02-22T17:41:12.470Z,10.60
2023-02-22T17:43:14.686Z,10.57
2023-02-22T17:45:16.198Z,10.55
2023-02-22T17:47:17.718Z,10.53
2023-02-22T17:49:19.345Z,10.49
2023-02-22T17:51:25.849Z,10.47
2023-02-22T17:53:27.308Z,10.42
2023-02-22T17:55:29.835Z,10.37
2023-02-22T17:57:31.305Z,10.34
2023-02-22T17:59:32.929Z,10.31
2023-02-22T18:01:35.236Z,10.26
2023-02-22T18:03:39.470Z,10.19
2023-02-22T18:05:43.568Z,10.16
2023-02-22T18:07:46.144Z,10.14
2023-02-22T18:09:47.694Z,10.14
2023-02-22T18:11:49.228Z,10.14
2023-02-22T18:13:50.681Z,10.12
2023-02-22T18:15:52.705Z,10.10
2023-02-22T18:17:54.622Z,10.10
2023-02-22T18:19:56.436Z,10.07
2023-02-22T18:22:00.205Z,10.05
2023-02-22T18:24:01.999Z,10.03
2023-02-22T18:26:11.111Z,10.01
2023-02-22T18:28:13.033Z,9.99
2023-02-22T18:30:14.604Z,9.97
2023-02-22T18:32:16.125Z,9.93
2023-02-22T18:34:17.621Z,9.92
2023-02-22T18:36:23.681Z,9.89
2023-02-22T18:38:25.606Z,9.86
2023-02-22T18:40:27.133Z,9.84
2023-02-22T18:42:28.859Z,9.83
2023-02-22T18:44:31.734Z,9.81
2023-02-22T18:46:33.289Z,9.79
2023-02-22T18:48:35.544Z,9.76
2023-02-22T18:50:37.839Z,9.76
2023-02-22T18:52:45.963Z,9.74
2023-02-22T18:54:49.417Z,9.73
2023-02-22T18:56:50.944Z,9.70
2023-02-22T18:58:56.946Z,9.69
2023-02-22T19:01:02.872Z,9.67
2023-02-22T19:03:05.772Z,9.66
2023-02-22T19:05:09.781Z,9.65
2023-02-22T19:07:17.744Z,9.63
2023-02-22T19:09:19.322Z,9.60
2023-02-22T19:11:23.810Z,9.59
2023-02-22T19:13:25.287Z,9.58
2023-02-22T19:15:26.752Z,9.55
2023-02-22T19:17:29.713Z,9.54
2023-02-22T19:19:31.503Z,9.52
2023-02-22T19:21:33.197Z,9.51
2023-02-22T19:23:36.281Z,9.49
2023-02-22T19:25:41.127Z,9.46
2023-02-22T19:27:44.404Z,9.45
2023-02-22T19:29:47.122Z,9.42
2023-02-22T19:31:54.095Z,9.40
2023-02-22T19:33:56.004Z,9.39
2023-02-22T19:35:59.829Z,9.38
2023-02-22T19:38:01.613Z,9.36
2023-02-22T19:40:09.069Z,9.35
2023-02-22T19:42:10.635Z,9.33
2023-02-22T19:44:12.693Z,9.32
2023-02-22T19:46:17.762Z,9.30
2023-02-22T19:48:20.688Z,9.28
2023-02-22T19:50:22.641Z,9.27
2023-02-22T19:52:24.114Z,9.25
2023-02-22T19:54:25.784Z,9.22
2023-02-22T19:56:28.235Z,9.20
2023-02-22T19:58:32.410Z,9.17
2023-02-22T20:00:37.070Z,9.13
2023-02-22T20:02:39.958Z,9.10
2023-02-22T20:04:41.566Z,9.06
2023-02-22T20:06:44.018Z,9.04
2023-02-22T20:08:45.544Z,9.01
2023-02-22T20:10:47.006Z,8.99
2023-02-22T20:12:48.511Z,8.97
2023-02-22T20:14:50.019Z,8.95
2023-02-22T20:16:53.166Z,8.92
2023-02-22T20:18:55.093Z,8.91
2023-02-22T20:20:56.586Z,8.88
2023-02-22T20:22:58.058Z,8.85
2023-02-22T20:24:59.586Z,8.83
2023-02-22T20:27:01.057Z,8.80
2023-02-22T20:29:04.204Z,8.77
2023-02-22T20:31:11.147Z,8.75
2023-02-22T20:33:13.953Z,8.71
2023-02-22T20:35:16.502Z,8.68
2023-02-22T20:37:18.261Z,8.67
2023-02-22T20:39:20.028Z,8.62
2023-02-22T20:41:26.154Z,8.58
2023-02-22T20:43:27.614Z,8.55
2023-02-22T20:45:29.100Z,8.50
2023-02-22T20:47:30.755Z,8.46
2023-02-22T20:49:32.529Z,8.44
2023-02-22T20:51:35.365Z,8.41
2023-02-22T20:53:41.349Z,8.37
2023-02-22T20:55:52.984Z,8.34
2023-02-22T20:57:54.492Z,8.28
2023-02-22T20:59:56.055Z,8.25
2023-02-22T21:01:57.671Z,8.22
2023-02-22T21:04:03.895Z,8.18
2023-02-22T21:06:06.707Z,8.16
2023-02-22T21:08:08.197Z,8.12
2023-02-22T21:10:09.666Z,8.09
2023-02-22T21:12:13.509Z,8.04
2023-02-22T21:14:18.724Z,8.01
2023-02-22T21:16:31.445Z,7.96
2023-02-22T21:18:33.135Z,7.92
2023-02-22T21:20:35.376Z,7.90
2023-02-22T21:22:38.587Z,7.85
2023-02-22T21:24:40.260Z,7.82
2023-02-22T21:26:41.734Z,7.77
2023-02-22T21:28:51.205Z,7.74
2023-02-22T21:30:53.156Z,7.68
2023-02-22T21:32:55.491Z,7.64
2023-02-22T21:34:57.407Z,7.60
2023-02-22T21:36:58.884Z,7.55
2023-02-22T21:39:08.218Z,7.53
2023-02-22T21:41:15.324Z,7.50
2023-02-22T21:43:16.779Z,7.46
2023-02-22T21:45:19.761Z,7.44
2023-02-22T21:47:21.365Z,7.41
2023-02-22T21:49:23.270Z,7.36
2023-02-22T21:51:32.793Z,7.34
2023-02-22T21:53:34.390Z,7.30
2023-02-22T21:55:38.101Z,7.29
2023-02-22T21:57:40.689Z,7.24
2023-02-22T21:59:42.149Z,7.21
2023-02-22T22:01:55.447Z,7.19
2023-02-22T22:04:01.390Z,7.14
2023-02-22T22:06:09.825Z,7.12
2023-02-22T22:08:19.345Z,7.08
2023-02-22T22:10:26.790Z,7.05
2023-02-22T22:12:37.422Z,7.04
2023-02-22T22:14:40.525Z,7.01
2023-02-22T22:16:41.991Z,7.00
2023-02-22T22:18:44.770Z,6.99
2023-02-22T22:20:46.236Z,6.97
2023-02-22T22:22:47.760Z,6.96
2023-02-22T22:24:50.012Z,6.95
2023-02-22T22:26:54.766Z,6.93
2023-02-22T22:28:59.267Z,6.91
2023-02-22T22:31:00.834Z,6.90
2023-02-22T22:33:06.402Z,6.88
2023-02-22T22:35:14.738Z,6.87
2023-02-22T22:37:16.653Z,6.85
2023-02-22T22:39:20.895Z,6.84
2023-02-22T22:41:23.390Z,6.82
2023-02-22T22:43:25.019Z,6.80
2023-02-22T22:45:26.608Z,6.80
2023-02-22T22:47:28.645Z,6.79
2023-02-22T22:49:32.536Z,6.78
2023-02-22T22:51:34.304Z,6.78
2023-02-22T22:53:41.566Z,6.78
2023-02-22T22:55:43.256Z,6.78
2023-02-22T22:57:44.724Z,6.77
2023-02-22T22:59:46.169Z,6.77
2023-02-22T23:01:47.661Z,6.77
2023-02-22T23:03:55.825Z,6.76
2023-02-22T23:06:02.140Z,6.74
2023-02-22T23:08:04.967Z,6.73
2023-02-22T23:10:07.073Z,6.73
2023-02-22T23:12:08.860Z,6.72
2023-02-22T23:14:21.229Z,6.71
2023-02-22T23:16:24.619Z,6.69
2023-02-22T23:18:26.178Z,6.68
2023-02-22T23:20:27.683Z,6.68
2023-02-22T23:22:29.255Z,6.69
2023-02-22T23:24:33.434Z,6.69
2023-02-22T23:26:35.172Z,6.69
2023-02-22T23:28:38.480Z,6.69
2023-02-22T23:30:41.046Z,6.70
2023-02-22T23:32:42.604Z,6.70
2023-02-22T23:34:44.182Z,6.70
2023-02-22T23:36:46.664Z,6.70
2023-02-22T23:38:48.625Z,6.70
2023-02-22T23:40:53.926Z,6.69
2023-02-22T23:42:55.630Z,6.70
2023-02-22T23:44:57.234Z,6.69
2023-02-22T23:46:58.759Z,6.70
2023-02-22T23:49:03.154Z,6.70
2023-02-22T23:51:09.341Z,6.69
2023-02-22T23:53:15.160Z,6.67
2023-02-22T23:55:20.724Z,6.65
2023-02-22T23:57:24.082Z,6.66
2023-02-22T23:59:27.131Z,6.68
